createdAt,value
2019-01-20T00:00:35.930Z,100808.67
2019-01-20T00:03:02.072Z,100799.59
2019-01-20T00:05:28.833Z,100804.05
2019-01-20T00:07:54.945Z,100803.45
2019-01-20T00:10:21.097Z,100806.67
2019-01-20T00:12:47.203Z,100803.13
2019-01-20T00:15:16.077Z,100809.25
2019-01-20T00:17:42.240Z,100804.78
2019-01-20T00:20:08.495Z,100807.57
2019-01-20T00:22:34.624Z,100813.57
2019-01-20T00:25:00.745Z,100807.88
2019-01-20T00:27:26.872Z,100811.53
2019-01-20T00:29:52.980Z,100815.58
2019-01-20T00:32:19.173Z,100812.78
2019-01-20T00:34:45.301Z,100808.79
2019-01-20T00:37:11.450Z,100805.97
2019-01-20T00:39:37.589Z,100804.94
2019-01-20T00:42:03.813Z,100805.78
2019-01-20T00:44:29.981Z,100807.39
2019-01-20T00:46:56.107Z,100807.75
2019-01-20T00:49:22.390Z,100806.79
2019-01-20T00:51:48.468Z,100806.72
2019-01-20T00:54:14.848Z,100810.59
2019-01-20T00:56:40.979Z,100801.93
2019-01-20T00:59:07.127Z,100803.90
2019-01-20T01:01:33.288Z,100802.61
2019-01-20T01:03:59.510Z,100804.64
2019-01-20T01:06:25.768Z,100805.39
2019-01-20T01:08:51.888Z,100807.84
2019-01-20T01:11:18.018Z,100809.87
2019-01-20T01:13:44.164Z,100809.81
2019-01-20T01:16:10.297Z,100809.74
2019-01-20T01:18:36.440Z,100808.84
2019-01-20T01:21:02.561Z,100809.81
2019-01-20T01:23:28.785Z,100805.45
2019-01-20T01:25:55.015Z,100807.91
2019-01-20T01:28:21.236Z,100809.62
2019-01-20T01:30:47.456Z,100804.84
2019-01-20T01:33:13.598Z,100806.50
2019-01-20T01:35:39.742Z,100810.00
2019-01-20T01:38:05.870Z,100817.73
2019-01-20T01:40:32.004Z,100814.09
2019-01-20T01:42:58.122Z,100816.92
2019-01-20T01:45:24.440Z,100821.21
2019-01-20T01:47:50.542Z,100821.59
2019-01-20T01:50:16.898Z,100824.72
2019-01-20T01:52:43.024Z,100820.85
2019-01-20T01:55:10.053Z,100820.30
2019-01-20T01:57:36.166Z,100828.58
2019-01-20T02:00:09.367Z,100827.36
2019-01-20T02:02:35.540Z,100830.84
2019-01-20T02:05:01.768Z,100836.38
2019-01-20T02:07:27.867Z,100835.38
2019-01-20T02:09:54.953Z,100830.23
2019-01-20T02:12:21.210Z,100843.24
2019-01-20T02:14:47.244Z,100832.38
2019-01-20T02:17:13.361Z,100840.47
2019-01-20T02:19:39.483Z,100847.30
2019-01-20T02:22:05.688Z,100847.72
2019-01-20T02:24:31.945Z,100844.11
2019-01-20T02:26:58.054Z,100846.20
2019-01-20T02:29:24.207Z,100843.18
2019-01-20T02:31:50.312Z,100846.75
2019-01-20T02:34:16.447Z,100845.27
2019-01-20T02:36:42.554Z,100843.44
2019-01-20T02:39:08.709Z,100847.72
2019-01-20T02:41:34.829Z,100845.62
2019-01-20T02:44:01.072Z,100846.92
2019-01-20T02:46:27.237Z,100846.81
2019-01-20T02:48:53.379Z,100846.91
2019-01-20T02:51:19.489Z,100843.44
2019-01-20T02:53:45.654Z,100850.23
2019-01-20T02:56:11.815Z,100848.04
2019-01-20T02:58:38.007Z,100857.66
2019-01-20T03:01:04.134Z,100849.12
2019-01-20T03:03:30.260Z,100846.78
2019-01-20T03:05:56.419Z,100851.38
2019-01-20T03:08:22.643Z,100850.89
2019-01-20T03:10:48.774Z,100853.11
2019-01-20T03:13:14.771Z,100851.31
2019-01-20T03:15:40.937Z,100849.54
2019-01-20T03:18:07.028Z,100853.59
2019-01-20T03:20:33.365Z,100849.80
2019-01-20T03:22:59.488Z,100850.46
2019-01-20T03:25:25.500Z,100846.53
2019-01-20T03:27:51.641Z,100838.48
2019-01-20T03:30:19.795Z,100843.02
2019-01-20T03:32:46.047Z,100850.20
2019-01-20T03:35:16.528Z,100847.02
2019-01-20T03:37:42.633Z,100846.15
2019-01-20T03:40:12.047Z,100846.66
2019-01-20T03:42:38.312Z,100855.48
2019-01-20T03:45:07.931Z,100846.53
2019-01-20T03:47:34.078Z,100851.13
2019-01-20T03:50:00.243Z,100856.08
2019-01-20T03:52:26.367Z,100862.45
2019-01-20T03:54:52.513Z,100859.32
2019-01-20T03:57:18.637Z,100862.56
2019-01-20T03:59:44.702Z,100862.50
2019-01-20T04:02:11.394Z,100866.22
2019-01-20T04:04:37.512Z,100862.47
2019-01-20T04:07:03.661Z,100863.06
2019-01-20T04:09:29.786Z,100868.15
2019-01-20T04:11:56.002Z,100867.38
2019-01-20T04:14:22.140Z,100872.46
2019-01-20T04:16:48.279Z,100870.69
2019-01-20T04:19:14.431Z,100873.81
2019-01-20T04:21:40.592Z,100866.20
2019-01-20T04:24:06.770Z,100881.40
2019-01-20T04:26:32.900Z,100878.20
2019-01-20T04:28:59.142Z,100884.08
2019-01-20T04:31:25.296Z,100881.43
2019-01-20T04:33:51.422Z,100883.45
2019-01-20T04:36:17.761Z,100878.16
2019-01-20T04:38:43.897Z,100884.03
2019-01-20T04:41:10.008Z,100888.63
2019-01-20T04:43:36.065Z,100878.91
2019-01-20T04:46:02.526Z,100885.28
2019-01-20T04:48:28.663Z,100888.13
2019-01-20T04:50:54.970Z,100881.86
2019-01-20T04:53:21.118Z,100891.20
2019-01-20T04:55:47.381Z,100884.07
2019-01-20T04:58:13.677Z,100893.38
2019-01-20T05:00:39.845Z,100886.97
2019-01-20T05:03:06.063Z,100886.97
2019-01-20T05:05:32.241Z,100886.27
2019-01-20T05:07:58.411Z,100881.84
2019-01-20T05:10:24.510Z,100893.03
2019-01-20T05:12:50.622Z,100888.05
2019-01-20T05:15:18.770Z,100888.13
2019-01-20T05:17:45.313Z,100883.70
2019-01-20T05:20:11.643Z,100891.83
2019-01-20T05:22:37.780Z,100898.98
2019-01-20T05:25:06.208Z,100889.60
2019-01-20T05:27:32.301Z,100892.48
2019-01-20T05:29:58.439Z,100898.49
2019-01-20T05:32:24.447Z,100898.49
2019-01-20T05:34:50.727Z,100899.25
2019-01-20T05:37:16.923Z,100901.41
2019-01-20T05:39:43.093Z,100903.97
2019-01-20T05:42:09.237Z,100903.97
2019-01-20T05:44:35.366Z,100905.41
2019-01-20T05:47:01.504Z,100903.18
2019-01-20T05:49:27.633Z,100903.18
2019-01-20T05:51:53.838Z,100905.27
2019-01-20T05:54:19.986Z,100908.32
2019-01-20T05:56:46.096Z,100910.25
2019-01-20T05:59:12.197Z,100917.32
2019-01-20T06:01:38.351Z,100916.27
2019-01-20T06:04:04.446Z,100916.27
2019-01-20T06:06:30.573Z,100923.33
2019-01-20T06:08:56.679Z,100925.34
2019-01-20T06:11:22.801Z,100928.66
2019-01-20T06:13:48.919Z,100930.17
2019-01-20T06:16:15.066Z,100936.11
2019-01-20T06:18:41.162Z,100941.81
2019-01-20T06:21:07.299Z,100943.17
2019-01-20T06:23:33.518Z,100951.79
2019-01-20T06:25:59.673Z,100952.51
2019-01-20T06:28:25.847Z,100960.52
2019-01-20T06:30:52.034Z,100963.35
2019-01-20T06:33:18.147Z,100964.56
2019-01-20T06:35:44.304Z,100962.30
2019-01-20T06:38:10.427Z,100967.05
2019-01-20T06:40:36.538Z,100972.34
2019-01-20T06:43:02.729Z,100976.84
2019-01-20T06:45:28.863Z,100974.20
2019-01-20T06:47:55.092Z,100971.30
2019-01-20T06:50:21.186Z,100976.36
2019-01-20T06:52:47.322Z,100978.85
2019-01-20T06:55:13.520Z,100981.08
2019-01-20T06:57:39.858Z,100982.86
2019-01-20T07:00:14.635Z,100988.23
2019-01-20T07:02:40.782Z,100984.79
2019-01-20T07:05:09.503Z,100991.62
2019-01-20T07:07:35.604Z,100994.91
2019-01-20T07:10:03.774Z,101000.62
2019-01-20T07:12:31.732Z,101004.55
2019-01-20T07:14:57.924Z,101006.33
2019-01-20T07:17:24.091Z,101012.63
2019-01-20T07:19:50.208Z,101016.41
2019-01-20T07:22:16.337Z,101014.59
2019-01-20T07:24:42.579Z,101014.10
2019-01-20T07:27:08.689Z,101017.05
2019-01-20T07:29:34.797Z,101019.00
2019-01-20T07:32:00.989Z,101021.57
2019-01-20T07:34:27.580Z,101024.94
2019-01-20T07:36:53.903Z,101026.87
2019-01-20T07:39:20.129Z,101031.12
2019-01-20T07:41:46.239Z,101035.38
2019-01-20T07:44:12.453Z,101035.95
2019-01-20T07:46:38.638Z,101041.97
2019-01-20T07:49:04.779Z,101042.60
2019-01-20T07:51:30.972Z,101048.95
2019-01-20T07:53:57.094Z,101045.25
2019-01-20T07:56:23.245Z,101052.96
2019-01-20T07:58:49.377Z,101054.66
2019-01-20T08:01:15.493Z,101053.67
2019-01-20T08:03:41.764Z,101059.15
2019-01-20T08:06:07.853Z,101060.43
2019-01-20T08:08:34.119Z,101063.00
2019-01-20T08:11:00.350Z,101073.59
2019-01-20T08:13:26.463Z,101076.81
2019-01-20T08:15:52.638Z,101070.09
2019-01-20T08:18:18.750Z,101087.45
2019-01-20T08:20:44.906Z,101094.03
2019-01-20T08:23:11.045Z,101093.48
2019-01-20T08:25:37.338Z,101093.56
2019-01-20T08:28:03.466Z,101091.64
2019-01-20T08:30:29.601Z,101101.94
2019-01-20T08:32:55.736Z,101101.94
2019-01-20T08:35:21.975Z,101110.53
2019-01-20T08:37:48.225Z,101110.53
2019-01-20T08:40:19.758Z,101109.41
2019-01-20T08:42:46.057Z,101105.48
2019-01-20T08:45:22.047Z,101122.66
2019-01-20T08:47:50.392Z,101122.66
2019-01-20T08:50:16.519Z,101126.52
2019-01-20T08:52:42.698Z,101131.03
2019-01-20T08:55:08.899Z,101131.03
2019-01-20T08:57:35.086Z,101135.38
2019-01-20T09:00:01.342Z,101138.74
2019-01-20T09:02:27.467Z,101143.14
2019-01-20T09:04:53.597Z,101142.83
2019-01-20T09:07:19.733Z,101154.30
2019-01-20T09:09:46.012Z,101151.63
2019-01-20T09:12:12.213Z,101158.55
2019-01-20T09:14:38.391Z,101170.20
2019-01-20T09:17:04.536Z,101171.47
2019-01-20T09:19:30.798Z,101169.04
2019-01-20T09:21:57.093Z,101172.18
2019-01-20T09:24:23.235Z,101175.53
2019-01-20T09:26:49.451Z,101177.33
2019-01-20T09:29:15.623Z,101186.33
2019-01-20T09:31:41.828Z,101182.02
2019-01-20T09:34:08.045Z,101180.13
2019-01-20T09:36:34.260Z,101190.48
2019-01-20T09:39:00.397Z,101193.10
2019-01-20T09:41:26.551Z,101192.82
2019-01-20T09:43:52.864Z,101197.70
2019-01-20T09:46:19.021Z,101197.17
2019-01-20T09:48:45.196Z,101195.04
2019-01-20T09:51:11.330Z,101201.07
2019-01-20T09:53:37.442Z,101208.83
2019-01-20T09:56:03.693Z,101210.13
2019-01-20T09:58:29.887Z,101218.48
2019-01-20T10:00:56.009Z,101217.82
2019-01-20T10:03:22.148Z,101217.29
2019-01-20T10:05:48.412Z,101225.23
2019-01-20T10:08:14.533Z,101225.34
2019-01-20T10:10:40.662Z,101230.14
2019-01-20T10:13:06.828Z,101231.70
2019-01-20T10:15:32.939Z,101232.81
2019-01-20T10:17:59.137Z,101232.75
2019-01-20T10:20:29.970Z,101237.24
2019-01-20T10:22:56.294Z,101245.12
2019-01-20T10:25:22.470Z,101250.97
2019-01-20T10:27:48.756Z,101250.56
2019-01-20T10:30:23.550Z,101248.59
2019-01-20T10:32:49.807Z,101252.70
2019-01-20T10:35:16.524Z,101251.11
2019-01-20T10:37:42.820Z,101254.56
2019-01-20T10:40:08.963Z,101258.25
2019-01-20T10:42:35.182Z,101260.70
2019-01-20T10:45:01.307Z,101264.09
2019-01-20T10:47:27.438Z,101271.23
2019-01-20T10:49:53.568Z,101277.88
2019-01-20T10:52:19.685Z,101276.20
2019-01-20T10:54:45.860Z,101276.12
2019-01-20T10:57:11.991Z,101277.87
2019-01-20T10:59:38.154Z,101280.68
2019-01-20T11:02:04.516Z,101281.73
2019-01-20T11:04:30.836Z,101283.70
2019-01-20T11:06:56.975Z,101276.00
2019-01-20T11:09:23.240Z,101280.98
2019-01-20T11:11:49.468Z,101281.84
2019-01-20T11:14:15.681Z,101279.92
2019-01-20T11:16:41.831Z,101277.28
2019-01-20T11:19:07.968Z,101284.95
2019-01-20T11:21:34.089Z,101286.22
2019-01-20T11:24:00.729Z,101279.22
2019-01-20T11:26:26.968Z,101276.81
2019-01-20T11:28:53.239Z,101278.94
2019-01-20T11:31:19.476Z,101284.64
2019-01-20T11:33:45.675Z,101286.80
2019-01-20T11:36:11.895Z,101287.64
2019-01-20T11:38:38.144Z,101291.95
2019-01-20T11:41:04.260Z,101295.61
2019-01-20T11:43:30.412Z,101297.09
2019-01-20T11:45:56.515Z,101291.21
2019-01-20T11:48:22.769Z,101294.79
2019-01-20T11:50:49.133Z,101298.46
2019-01-20T11:53:15.394Z,101298.94
2019-01-20T11:55:41.532Z,101296.53
2019-01-20T11:58:07.691Z,101292.48
2019-01-20T12:00:34.323Z,101296.00
2019-01-20T12:03:00.657Z,101291.78
2019-01-20T12:05:26.764Z,101296.06
2019-01-20T12:07:54.258Z,101295.19
2019-01-20T12:10:20.572Z,101292.06
2019-01-20T12:12:48.600Z,101297.89
2019-01-20T12:15:15.272Z,101297.61
2019-01-20T12:17:41.397Z,101296.97
2019-01-20T12:20:10.315Z,101292.83
2019-01-20T12:22:36.490Z,101300.42
2019-01-20T12:25:05.844Z,101297.25
2019-01-20T12:27:31.994Z,101303.19
2019-01-20T12:29:58.212Z,101304.03
2019-01-20T12:32:24.472Z,101302.03
2019-01-20T12:34:50.604Z,101302.14
2019-01-20T12:37:16.918Z,101297.02
2019-01-20T12:39:43.047Z,101305.32
2019-01-20T12:42:09.214Z,101303.66
2019-01-20T12:44:35.450Z,101304.30
2019-01-20T12:47:01.667Z,101312.50
2019-01-20T12:49:27.882Z,101318.01
2019-01-20T12:51:54.022Z,101307.42
2019-01-20T12:54:20.138Z,101307.41
2019-01-20T12:56:47.348Z,101313.08
2019-01-20T12:59:13.718Z,101313.10
2019-01-20T13:01:39.882Z,101306.56
2019-01-20T13:04:06.106Z,101302.14
2019-01-20T13:06:32.326Z,101305.38
2019-01-20T13:08:58.524Z,101304.44
2019-01-20T13:11:24.721Z,101301.08
2019-01-20T13:13:51.029Z,101294.11
2019-01-20T13:16:17.163Z,101304.39
2019-01-20T13:18:43.338Z,101295.75
2019-01-20T13:21:09.721Z,101295.75
2019-01-20T13:23:35.936Z,101303.83
2019-01-20T13:26:02.173Z,101301.18
2019-01-20T13:28:28.569Z,101298.73
2019-01-20T13:30:54.806Z,101299.74
2019-01-20T13:33:21.178Z,101297.48
2019-01-20T13:35:47.440Z,101308.40
2019-01-20T13:38:13.664Z,101307.97
2019-01-20T13:40:49.395Z,101308.92
2019-01-20T13:43:15.636Z,101303.20
2019-01-20T13:45:41.996Z,101310.17
2019-01-20T13:48:08.273Z,101312.25
2019-01-20T13:50:34.468Z,101310.70
2019-01-20T13:53:00.694Z,101313.12
2019-01-20T13:55:26.921Z,101314.27
2019-01-20T13:57:53.253Z,101320.77
2019-01-20T14:00:24.139Z,101325.85
2019-01-20T14:02:50.429Z,101324.36
2019-01-20T14:05:16.559Z,101322.88
2019-01-20T14:07:42.683Z,101323.25
2019-01-20T14:10:14.367Z,101320.70
2019-01-20T14:12:41.064Z,101322.52
2019-01-20T14:15:10.109Z,101327.58
2019-01-20T14:17:36.279Z,101323.97
2019-01-20T14:20:06.180Z,101317.20
2019-01-20T14:22:32.517Z,101319.08
2019-01-20T14:24:58.709Z,101324.11
2019-01-20T14:27:25.029Z,101324.27
2019-01-20T14:29:51.190Z,101327.71
2019-01-20T14:32:17.395Z,101330.25
2019-01-20T14:34:44.010Z,101327.86
2019-01-20T14:37:10.191Z,101333.92
2019-01-20T14:39:36.321Z,101335.73
2019-01-20T14:42:02.490Z,101332.52
2019-01-20T14:44:28.800Z,101332.90
2019-01-20T14:46:55.130Z,101334.86
2019-01-20T14:49:21.395Z,101344.77
2019-01-20T14:51:47.913Z,101340.88
2019-01-20T14:54:14.328Z,101340.72
2019-01-20T14:56:40.630Z,101346.30
2019-01-20T14:59:07.101Z,101348.50
2019-01-20T15:01:33.507Z,101351.33
2019-01-20T15:03:59.766Z,101352.47
2019-01-20T15:06:26.188Z,101362.84
2019-01-20T15:08:52.319Z,101365.02
2019-01-20T15:11:20.197Z,101362.74
2019-01-20T15:13:46.503Z,101372.00
2019-01-20T15:16:12.676Z,101371.95
2019-01-20T15:18:38.926Z,101373.41
2019-01-20T15:21:05.048Z,101376.01
2019-01-20T15:23:31.234Z,101374.07
2019-01-20T15:25:57.397Z,101386.22
2019-01-20T15:28:23.504Z,101382.98
2019-01-20T15:30:50.114Z,101382.55
2019-01-20T15:33:17.026Z,101384.39
2019-01-20T15:35:43.594Z,101384.19
2019-01-20T15:38:10.197Z,101396.80
2019-01-20T15:40:36.467Z,101395.61
2019-01-20T15:43:03.369Z,101394.36
2019-01-20T15:45:29.632Z,101402.34
2019-01-20T15:47:55.771Z,101405.06
2019-01-20T15:50:25.666Z,101406.20
2019-01-20T15:52:51.929Z,101403.16
2019-01-20T15:55:18.171Z,101403.01
2019-01-20T15:57:44.406Z,101409.13
2019-01-20T16:00:18.801Z,101410.92
2019-01-20T16:02:44.999Z,101413.05
2019-01-20T16:05:11.294Z,101416.69
2019-01-20T16:07:37.471Z,101420.83
2019-01-20T16:10:09.879Z,101417.93
2019-01-20T16:12:36.051Z,101420.52
2019-01-20T16:15:03.308Z,101423.05
2019-01-20T16:17:29.590Z,101429.30
2019-01-20T16:19:55.722Z,101429.17
2019-01-20T16:22:21.883Z,101441.91
2019-01-20T16:24:48.003Z,101441.48
2019-01-20T16:27:14.620Z,101437.95
2019-01-20T16:29:40.771Z,101445.27
2019-01-20T16:32:06.945Z,101443.70
2019-01-20T16:34:33.214Z,101447.63
2019-01-20T16:36:59.328Z,101447.30
2019-01-20T16:39:26.746Z,101450.48
2019-01-20T16:41:52.936Z,101451.95
2019-01-20T16:44:19.060Z,101460.36
2019-01-20T16:46:45.249Z,101464.34
2019-01-20T16:49:11.476Z,101468.36
2019-01-20T16:51:37.647Z,101464.17
2019-01-20T16:54:03.918Z,101467.83
2019-01-20T16:56:30.080Z,101475.37
2019-01-20T16:58:56.313Z,101473.75
2019-01-20T17:01:22.470Z,101486.88
2019-01-20T17:03:48.741Z,101479.29
2019-01-20T17:06:14.868Z,101480.25
2019-01-20T17:08:41.121Z,101490.86
2019-01-20T17:11:07.319Z,101496.59
2019-01-20T17:13:33.468Z,101499.03
2019-01-20T17:15:59.715Z,101502.56
2019-01-20T17:18:25.918Z,101507.16
2019-01-20T17:20:52.072Z,101507.92
2019-01-20T17:23:18.226Z,101517.25
2019-01-20T17:25:44.464Z,101514.98
2019-01-20T17:28:10.679Z,101520.14
2019-01-20T17:30:37.327Z,101518.78
2019-01-20T17:33:05.611Z,101523.79
2019-01-20T17:35:31.772Z,101531.61
2019-01-20T17:37:57.877Z,101535.81
2019-01-20T17:40:26.249Z,101534.91
2019-01-20T17:42:52.419Z,101538.40
2019-01-20T17:45:20.894Z,101538.21
2019-01-20T17:47:47.010Z,101550.66
2019-01-20T17:50:19.871Z,101550.89
2019-01-20T17:52:46.138Z,101552.83
2019-01-20T17:55:12.505Z,101559.85
2019-01-20T17:57:38.641Z,101558.56
2019-01-20T18:00:14.341Z,101563.58
2019-01-20T18:02:40.516Z,101560.65
2019-01-20T18:05:09.570Z,101568.39
2019-01-20T18:07:35.763Z,101574.77
2019-01-20T18:10:05.810Z,101577.92
2019-01-20T18:12:32.189Z,101579.73
2019-01-20T18:14:58.623Z,101586.19
2019-01-20T18:17:24.859Z,101584.66
2019-01-20T18:19:51.028Z,101594.62
2019-01-20T18:22:17.144Z,101589.59
2019-01-20T18:24:43.304Z,101593.88
2019-01-20T18:27:09.439Z,101602.02
2019-01-20T18:29:35.614Z,101610.91
2019-01-20T18:32:01.738Z,101603.96
2019-01-20T18:34:28.014Z,101607.20
2019-01-20T18:36:54.172Z,101609.91
2019-01-20T18:39:20.358Z,101615.45
2019-01-20T18:41:46.616Z,101617.31
2019-01-20T18:44:12.892Z,101624.19
2019-01-20T18:46:39.026Z,101628.22
2019-01-20T18:49:05.203Z,101635.90
2019-01-20T18:51:31.325Z,101633.95
2019-01-20T18:53:57.560Z,101630.73
2019-01-20T18:56:23.707Z,101636.55
2019-01-20T18:58:49.893Z,101639.05
2019-01-20T19:01:16.025Z,101646.38
2019-01-20T19:03:42.281Z,101650.98
2019-01-20T19:06:08.491Z,101649.69
2019-01-20T19:08:34.623Z,101652.31
2019-01-20T19:11:00.879Z,101656.19
2019-01-20T19:13:27.013Z,101657.63
2019-01-20T19:15:53.264Z,101665.38
2019-01-20T19:18:19.563Z,101666.82
2019-01-20T19:20:45.761Z,101657.97
2019-01-20T19:23:11.901Z,101666.85
2019-01-20T19:25:38.147Z,101665.45
2019-01-20T19:28:04.304Z,101659.09
2019-01-20T19:30:32.812Z,101672.48
2019-01-20T19:32:58.938Z,101673.13
2019-01-20T19:35:25.256Z,101677.14
2019-01-20T19:37:51.490Z,101677.70
2019-01-20T19:40:17.874Z,101688.36
2019-01-20T19:42:44.106Z,101689.38
2019-01-20T19:45:15.898Z,101689.22
2019-01-20T19:47:42.046Z,101692.30
2019-01-20T19:50:12.992Z,101690.11
2019-01-20T19:52:39.410Z,101692.95
2019-01-20T19:55:14.911Z,101692.69
2019-01-20T19:57:41.154Z,101705.69
2019-01-20T20:00:10.957Z,101710.20
2019-01-20T20:02:37.107Z,101712.41
2019-01-20T20:05:06.882Z,101719.12
2019-01-20T20:07:33.134Z,101718.20
2019-01-20T20:09:59.279Z,101716.67
2019-01-20T20:12:25.406Z,101721.33
2019-01-20T20:14:51.685Z,101725.28
2019-01-20T20:17:17.868Z,101723.66
2019-01-20T20:19:43.995Z,101721.71
2019-01-20T20:22:10.166Z,101724.42
2019-01-20T20:24:36.358Z,101728.79
2019-01-20T20:27:02.503Z,101729.70
2019-01-20T20:29:28.676Z,101731.78
2019-01-20T20:31:54.897Z,101735.06
2019-01-20T20:34:21.039Z,101733.28
2019-01-20T20:36:47.169Z,101736.48
2019-01-20T20:39:13.492Z,101742.06
2019-01-20T20:41:39.707Z,101736.56
2019-01-20T20:44:05.829Z,101740.31
2019-01-20T20:46:32.080Z,101736.36
2019-01-20T20:48:58.228Z,101733.78
2019-01-20T20:51:24.396Z,101739.27
2019-01-20T20:53:50.535Z,101738.52
2019-01-20T20:56:16.703Z,101742.55
2019-01-20T20:58:42.937Z,101748.00
2019-01-20T21:01:09.178Z,101757.28
2019-01-20T21:03:35.338Z,101754.91
2019-01-20T21:06:01.468Z,101766.42
2019-01-20T21:08:27.653Z,101759.14
2019-01-20T21:10:53.866Z,101757.97
2019-01-20T21:13:20.026Z,101752.64
2019-01-20T21:15:46.151Z,101749.05
2019-01-20T21:18:12.269Z,101749.26
2019-01-20T21:20:38.448Z,101754.03
2019-01-20T21:23:11.766Z,101756.73
2019-01-20T21:25:32.743Z,101751.70
2019-01-20T21:27:58.926Z,101757.46
2019-01-20T21:30:26.510Z,101773.83
2019-01-20T21:32:52.897Z,101779.80
2019-01-20T21:35:19.250Z,101792.83
2019-01-20T21:37:45.405Z,101797.77
2019-01-20T21:40:14.151Z,101796.02
2019-01-20T21:42:40.308Z,101799.48
2019-01-20T21:45:08.983Z,101801.38
2019-01-20T21:47:35.112Z,101814.87
2019-01-20T21:50:01.363Z,101818.55
2019-01-20T21:52:27.650Z,101808.25
2019-01-20T21:54:53.833Z,101804.38
2019-01-20T21:57:19.986Z,101806.08
2019-01-20T21:59:46.216Z,101801.72
2019-01-20T22:02:12.480Z,101807.88
2019-01-20T22:04:38.648Z,101798.63
2019-01-20T22:07:04.890Z,101802.74
2019-01-20T22:09:31.064Z,101795.92
2019-01-20T22:11:57.312Z,101798.79
2019-01-20T22:14:23.472Z,101800.48
2019-01-20T22:16:52.785Z,101803.53
2019-01-20T22:19:17.796Z,101801.45
2019-01-20T22:21:43.897Z,101801.55
2019-01-20T22:24:10.014Z,101795.92
2019-01-20T22:26:36.170Z,101801.78
2019-01-20T22:29:02.333Z,101800.95
2019-01-20T22:31:28.594Z,101805.55
2019-01-20T22:33:54.824Z,101809.33
2019-01-20T22:36:21.115Z,101822.67
2019-01-20T22:38:47.255Z,101819.31
2019-01-20T22:41:13.370Z,101817.93
2019-01-20T22:43:39.648Z,101819.22
2019-01-20T22:46:05.897Z,101817.05
2019-01-20T22:48:32.066Z,101818.53
2019-01-20T22:50:58.531Z,101825.90
2019-01-20T22:53:24.657Z,101832.84
2019-01-20T22:55:50.809Z,101840.77
2019-01-20T22:58:16.986Z,101843.67
2019-01-20T23:00:47.707Z,101848.22
2019-01-20T23:03:14.107Z,101852.96
2019-01-20T23:05:40.381Z,101845.97
2019-01-20T23:08:06.619Z,101859.02
2019-01-20T23:10:32.865Z,101861.60
2019-01-20T23:12:58.865Z,101864.87
2019-01-20T23:15:25.010Z,101865.38
2019-01-20T23:17:51.090Z,101865.69
2019-01-20T23:20:17.216Z,101871.43
2019-01-20T23:22:43.327Z,101875.79
2019-01-20T23:25:09.471Z,101865.99
2019-01-20T23:27:35.557Z,101873.52
2019-01-20T23:30:01.807Z,101875.50
2019-01-20T23:32:27.919Z,101866.39
2019-01-20T23:34:54.133Z,101871.91
2019-01-20T23:37:20.295Z,101866.10
2019-01-20T23:39:46.445Z,101869.14
2019-01-20T23:42:12.551Z,101866.57
2019-01-20T23:44:38.719Z,101858.66
2019-01-20T23:47:04.834Z,101862.61
2019-01-20T23:49:31.070Z,101871.44
2019-01-20T23:51:57.294Z,101881.83
2019-01-20T23:54:23.374Z,101867.25
2019-01-20T23:56:49.596Z,101874.02
2019-01-20T23:59:15.746Z,101879.95
